sensor_id;sensor_type;location;lat;lon;timestamp;temperature;humidity
67165;SHT31;54093;50.014;19.984;2023-04-15T00:07:21;10.83;66.30
67165;SHT31;54093;50.014;19.984;2023-04-15T00:16:42;10.70;66.37
67165;SHT31;54093;50.014;19.984;2023-04-15T00:26:03;10.66;66.18
67165;SHT31;54093;50.014;19.984;2023-04-15T00:35:24;10.62;67.15
67165;SHT31;54093;50.014;19.984;2023-04-15T00:44:45;10.56;67.08
67165;SHT31;54093;50.014;19.984;2023-04-15T00:54:06;10.52;67.37
67165;SHT31;54093;50.014;19.984;2023-04-15T01:03:28;10.56;67.79
67165;SHT31;54093;50.014;19.984;2023-04-15T01:12:49;10.45;67.22
67165;SHT31;54093;50.014;19.984;2023-04-15T01:22:11;10.46;67.60
67165;SHT31;54093;50.014;19.984;2023-04-15T01:31:32;10.36;67.94
67165;SHT31;54093;50.014;19.984;2023-04-15T01:40:53;10.41;68.52
67165;SHT31;54093;50.014;19.984;2023-04-15T01:50:14;10.35;68.53
67165;SHT31;54093;50.014;19.984;2023-04-15T01:59:35;10.32;67.93
67165;SHT31;54093;50.014;19.984;2023-04-15T02:08:56;10.24;68.66
67165;SHT31;54093;50.014;19.984;2023-04-15T02:18:18;10.18;69.09
67165;SHT31;54093;50.014;19.984;2023-04-15T02:27:39;10.08;67.88
67165;SHT31;54093;50.014;19.984;2023-04-15T02:37:00;9.90;69.27
67165;SHT31;54093;50.014;19.984;2023-04-15T02:46:21;9.77;69.46
67165;SHT31;54093;50.014;19.984;2023-04-15T02:55:42;9.67;70.25
67165;SHT31;54093;50.014;19.984;2023-04-15T03:05:04;9.54;69.92
67165;SHT31;54093;50.014;19.984;2023-04-15T03:14:25;9.35;69.90
67165;SHT31;54093;50.014;19.984;2023-04-15T03:23:47;9.25;71.24
67165;SHT31;54093;50.014;19.984;2023-04-15T03:33:08;9.08;70.84
67165;SHT31;54093;50.014;19.984;2023-04-15T03:42:29;8.98;70.71
67165;SHT31;54093;50.014;19.984;2023-04-15T03:51:50;9.07;72.07
67165;SHT31;54093;50.014;19.984;2023-04-15T04:01:11;9.04;71.30
67165;SHT31;54093;50.014;19.984;2023-04-15T04:10:32;8.85;71.42
67165;SHT31;54093;50.014;19.984;2023-04-15T04:19:52;8.71;72.17
67165;SHT31;54093;50.014;19.984;2023-04-15T04:29:13;8.88;72.90
67165;SHT31;54093;50.014;19.984;2023-04-15T04:38:34;8.77;72.49
67165;SHT31;54093;50.014;19.984;2023-04-15T04:47:55;8.68;72.64
67165;SHT31;54093;50.014;19.984;2023-04-15T04:57:16;8.87;72.84
67165;SHT31;54093;50.014;19.984;2023-04-15T05:06:37;8.91;72.56
67165;SHT31;54093;50.014;19.984;2023-04-15T05:15:58;8.99;72.00
67165;SHT31;54093;50.014;19.984;2023-04-15T05:25:19;9.05;72.02
67165;SHT31;54093;50.014;19.984;2023-04-15T05:34:40;9.28;71.02
67165;SHT31;54093;50.014;19.984;2023-04-15T05:44:01;9.53;70.20
67165;SHT31;54093;50.014;19.984;2023-04-15T05:53:22;9.76;69.76
67165;SHT31;54093;50.014;19.984;2023-04-15T06:02:43;11.06;71.09
67165;SHT31;54093;50.014;19.984;2023-04-15T06:12:04;11.73;67.43
67165;SHT31;54093;50.014;19.984;2023-04-15T06:21:26;11.86;66.11
67165;SHT31;54093;50.014;19.984;2023-04-15T06:30:47;12.79;65.58
67165;SHT31;54093;50.014;19.984;2023-04-15T06:40:08;13.20;64.70
67165;SHT31;54093;50.014;19.984;2023-04-15T06:49:29;13.05;60.67
67165;SHT31;54093;50.014;19.984;2023-04-15T06:58:50;13.33;61.96
67165;SHT31;54093;50.014;19.984;2023-04-15T07:08:11;13.47;61.97
67165;SHT31;54093;50.014;19.984;2023-04-15T07:17:32;13.79;59.47
67165;SHT31;54093;50.014;19.984;2023-04-15T07:26:53;13.86;59.69
67165;SHT31;54093;50.014;19.984;2023-04-15T07:36:17;13.81;59.20
67165;SHT31;54093;50.014;19.984;2023-04-15T07:45:38;14.18;57.66
67165;SHT31;54093;50.014;19.984;2023-04-15T07:54:59;14.16;58.57
67165;SHT31;54093;50.014;19.984;2023-04-15T08:04:20;14.26;54.96
67165;SHT31;54093;50.014;19.984;2023-04-15T08:13:41;14.69;55.13
67165;SHT31;54093;50.014;19.984;2023-04-15T08:23:02;15.52;53.48
67165;SHT31;54093;50.014;19.984;2023-04-15T08:32:24;15.91;52.59
67165;SHT31;54093;50.014;19.984;2023-04-15T08:41:50;15.96;52.87
67165;SHT31;54093;50.014;19.984;2023-04-15T08:51:11;16.62;48.87
67165;SHT31;54093;50.014;19.984;2023-04-15T09:00:35;16.66;50.89
67165;SHT31;54093;50.014;19.984;2023-04-15T09:09:57;16.77;49.66
67165;SHT31;54093;50.014;19.984;2023-04-15T09:19:22;16.68;50.91
67165;SHT31;54093;50.014;19.984;2023-04-15T09:28:44;16.42;51.09
67165;SHT31;54093;50.014;19.984;2023-04-15T09:38:06;16.65;50.90
67165;SHT31;54093;50.014;19.984;2023-04-15T09:56:48;16.35;48.60
67165;SHT31;54093;50.014;19.984;2023-04-15T10:06:10;16.40;50.31
67165;SHT31;54093;50.014;19.984;2023-04-15T10:15:32;16.54;48.68
67165;SHT31;54093;50.014;19.984;2023-04-15T10:24:55;17.67;46.36
67165;SHT31;54093;50.014;19.984;2023-04-15T10:34:17;17.42;46.18
67165;SHT31;54093;50.014;19.984;2023-04-15T10:43:38;18.88;42.81
67165;SHT31;54093;50.014;19.984;2023-04-15T10:53:02;19.67;40.43
67165;SHT31;54093;50.014;19.984;2023-04-15T11:02:44;19.69;39.30
67165;SHT31;54093;50.014;19.984;2023-04-15T11:12:09;18.54;40.66
67165;SHT31;54093;50.014;19.984;2023-04-15T11:21:30;17.89;43.17
67165;SHT31;54093;50.014;19.984;2023-04-15T11:30:51;17.61;44.84
67165;SHT31;54093;50.014;19.984;2023-04-15T11:40:12;18.06;43.66
67165;SHT31;54093;50.014;19.984;2023-04-15T11:49:34;17.61;43.41
67165;SHT31;54093;50.014;19.984;2023-04-15T11:58:59;16.93;44.77
67165;SHT31;54093;50.014;19.984;2023-04-15T12:08:20;16.51;45.99
67165;SHT31;54093;50.014;19.984;2023-04-15T12:17:42;16.56;47.19
67165;SHT31;54093;50.014;19.984;2023-04-15T12:27:07;17.54;43.93
67165;SHT31;54093;50.014;19.984;2023-04-15T12:36:29;17.20;45.31
67165;SHT31;54093;50.014;19.984;2023-04-15T12:45:55;16.75;46.01
67165;SHT31;54093;50.014;19.984;2023-04-15T12:55:16;16.25;47.14
67165;SHT31;54093;50.014;19.984;2023-04-15T13:04:37;15.96;48.49
67165;SHT31;54093;50.014;19.984;2023-04-15T13:14:06;15.80;48.44
67165;SHT31;54093;50.014;19.984;2023-04-15T13:23:28;15.82;49.32
67165;SHT31;54093;50.014;19.984;2023-04-15T13:32:49;16.13;48.52
67165;SHT31;54093;50.014;19.984;2023-04-15T13:42:10;16.80;49.23
67165;SHT31;54093;50.014;19.984;2023-04-15T13:51:31;17.60;45.75
67165;SHT31;54093;50.014;19.984;2023-04-15T14:00:52;17.89;47.81
67165;SHT31;54093;50.014;19.984;2023-04-15T14:10:13;17.85;45.49
67165;SHT31;54093;50.014;19.984;2023-04-15T14:19:34;18.12;44.45
67165;SHT31;54093;50.014;19.984;2023-04-15T14:28:55;18.58;41.82
67165;SHT31;54093;50.014;19.984;2023-04-15T14:38:16;17.89;44.91
67165;SHT31;54093;50.014;19.984;2023-04-15T14:47:37;17.00;47.44
67165;SHT31;54093;50.014;19.984;2023-04-15T14:56:58;16.44;48.48
67165;SHT31;54093;50.014;19.984;2023-04-15T15:06:20;15.98;50.92
67165;SHT31;54093;50.014;19.984;2023-04-15T15:15:41;15.85;51.91
67165;SHT31;54093;50.014;19.984;2023-04-15T15:25:03;15.57;52.65
67165;SHT31;54093;50.014;19.984;2023-04-15T15:34:24;15.49;52.66
67165;SHT31;54093;50.014;19.984;2023-04-15T15:43:44;15.48;53.32
67165;SHT31;54093;50.014;19.984;2023-04-15T15:53:06;15.62;52.43
67165;SHT31;54093;50.014;19.984;2023-04-15T16:02:28;14.94;54.01
67165;SHT31;54093;50.014;19.984;2023-04-15T16:11:50;13.92;59.56
67165;SHT31;54093;50.014;19.984;2023-04-15T16:21:11;12.34;65.76
67165;SHT31;54093;50.014;19.984;2023-04-15T16:30:36;12.28;67.38
67165;SHT31;54093;50.014;19.984;2023-04-15T16:39:57;12.21;66.34
67165;SHT31;54093;50.014;19.984;2023-04-15T16:49:18;12.04;66.37
67165;SHT31;54093;50.014;19.984;2023-04-15T16:58:39;11.93;66.06
67165;SHT31;54093;50.014;19.984;2023-04-15T17:08:00;11.82;67.99
67165;SHT31;54093;50.014;19.984;2023-04-15T17:17:21;11.78;68.80
67165;SHT31;54093;50.014;19.984;2023-04-15T17:26:42;11.55;69.67
67165;SHT31;54093;50.014;19.984;2023-04-15T17:36:03;11.06;70.52
67165;SHT31;54093;50.014;19.984;2023-04-15T17:45:25;11.22;70.38
67165;SHT31;54093;50.014;19.984;2023-04-15T17:54:46;10.97;70.24
67165;SHT31;54093;50.014;19.984;2023-04-15T18:04:07;11.06;71.02
67165;SHT31;54093;50.014;19.984;2023-04-15T18:13:28;10.70;69.91
67165;SHT31;54093;50.014;19.984;2023-04-15T18:22:49;10.41;71.16
67165;SHT31;54093;50.014;19.984;2023-04-15T18:32:11;10.39;70.87
67165;SHT31;54093;50.014;19.984;2023-04-15T18:41:32;10.39;70.56
67165;SHT31;54093;50.014;19.984;2023-04-15T18:50:53;10.05;71.67
67165;SHT31;54093;50.014;19.984;2023-04-15T19:00:14;10.16;70.49
67165;SHT31;54093;50.014;19.984;2023-04-15T19:09:36;10.19;71.31
67165;SHT31;54093;50.014;19.984;2023-04-15T19:18:57;9.80;71.02
67165;SHT31;54093;50.014;19.984;2023-04-15T19:28:19;9.53;71.29
67165;SHT31;54093;50.014;19.984;2023-04-15T19:37:40;9.51;71.76
67165;SHT31;54093;50.014;19.984;2023-04-15T19:47:01;8.89;72.97
67165;SHT31;54093;50.014;19.984;2023-04-15T19:56:22;8.95;73.03
67165;SHT31;54093;50.014;19.984;2023-04-15T20:05:43;8.89;72.86
67165;SHT31;54093;50.014;19.984;2023-04-15T20:15:08;8.33;74.87
67165;SHT31;54093;50.014;19.984;2023-04-15T20:24:30;8.32;73.09
67165;SHT31;54093;50.014;19.984;2023-04-15T20:33:51;8.46;74.80
67165;SHT31;54093;50.014;19.984;2023-04-15T20:43:12;8.54;73.22
67165;SHT31;54093;50.014;19.984;2023-04-15T20:52:33;8.16;75.03
67165;SHT31;54093;50.014;19.984;2023-04-15T21:01:54;8.07;74.43
67165;SHT31;54093;50.014;19.984;2023-04-15T21:11:16;7.89;74.97
67165;SHT31;54093;50.014;19.984;2023-04-15T21:20:37;7.93;74.20
67165;SHT31;54093;50.014;19.984;2023-04-15T21:29:59;7.60;75.73
67165;SHT31;54093;50.014;19.984;2023-04-15T21:39:20;7.61;76.37
67165;SHT31;54093;50.014;19.984;2023-04-15T21:48:41;7.65;76.09
67165;SHT31;54093;50.014;19.984;2023-04-15T21:58:02;7.60;76.38
67165;SHT31;54093;50.014;19.984;2023-04-15T22:07:23;7.62;76.32
67165;SHT31;54093;50.014;19.984;2023-04-15T22:16:44;7.57;76.76
67165;SHT31;54093;50.014;19.984;2023-04-15T22:26:05;7.55;76.92
67165;SHT31;54093;50.014;19.984;2023-04-15T22:35:26;7.43;77.47
67165;SHT31;54093;50.014;19.984;2023-04-15T22:44:48;7.35;77.90
67165;SHT31;54093;50.014;19.984;2023-04-15T22:54:09;7.35;77.75
67165;SHT31;54093;50.014;19.984;2023-04-15T23:03:30;7.37;77.95
67165;SHT31;54093;50.014;19.984;2023-04-15T23:12:51;7.44;78.00
67165;SHT31;54093;50.014;19.984;2023-04-15T23:22:13;7.31;77.82
67165;SHT31;54093;50.014;19.984;2023-04-15T23:31:34;7.17;77.76
67165;SHT31;54093;50.014;19.984;2023-04-15T23:40:55;7.10;78.05
67165;SHT31;54093;50.014;19.984;2023-04-15T23:50:16;7.07;77.49
67165;SHT31;54093;50.014;19.984;2023-04-15T23:59:37;7.14;77.33
